TAP1435 LPPT-GMMN
Flight info
| Callsign | TAP1435 |
|---|---|
| Flight time | 1h 9m |
| Altitude | 37000 |
| Route | DUZOP DCT AMSEL UR722 LAKAM |
| Aircraft | A320/M-SDE3FGHIRWY/LB1 |
Departure
| Time | 2026-05-07 19:45 |
|---|---|
| Airport | Lisbon Humberto Delgado Airport (LPPT) |
Arrival
| Time | 2026-05-07 20:54 |
|---|---|
| Airport | Mohammed V International Airport (GMMN) |
| Time | Latitude | Longitude | Altitude | Speed | Heading |
|---|---|---|---|---|---|
| 2026-05-07 19:04 | 38.76460 | -9.13356 | 352 ft | 0 kts | 73° |
| 2026-05-07 19:35 | 38.76454 | -9.13377 | 352 ft | 4 kts | 63° |
| 2026-05-07 19:35 | 38.76439 | -9.13403 | 352 ft | 4 kts | 27° |
| 2026-05-07 19:35 | 38.76419 | -9.13408 | 347 ft | 1 kts | 344° |
| 2026-05-07 19:36 | 38.76414 | -9.13406 | 346 ft | 0 kts | 344° |
| 2026-05-07 19:39 | 38.76416 | -9.13407 | 317 ft | 2 kts | 344° |
| 2026-05-07 19:40 | 38.76458 | -9.13422 | 345 ft | 10 kts | 344° |
| 2026-05-07 19:40 | 38.76530 | -9.13449 | 345 ft | 12 kts | 344° |
| 2026-05-07 19:40 | 38.76610 | -9.13479 | 346 ft | 12 kts | 344° |
| 2026-05-07 19:40 | 38.76643 | -9.13558 | 354 ft | 12 kts | 259° |
| 2026-05-07 19:41 | 38.76624 | -9.13673 | 346 ft | 14 kts | 259° |
| 2026-05-07 19:41 | 38.76602 | -9.13803 | 346 ft | 16 kts | 258° |
| 2026-05-07 19:41 | 38.76580 | -9.13941 | 350 ft | 15 kts | 258° |
| 2026-05-07 19:41 | 38.76527 | -9.14056 | 351 ft | 15 kts | 228° |
| 2026-05-07 19:42 | 38.76501 | -9.14194 | 351 ft | 18 kts | 289° |
| 2026-05-07 19:42 | 38.76537 | -9.14308 | 334 ft | 5 kts | 293° |
| 2026-05-07 19:42 | 38.76540 | -9.14315 | 335 ft | 0 kts | 293° |
| 2026-05-07 19:43 | 38.76540 | -9.14317 | 335 ft | 2 kts | 293° |
| 2026-05-07 19:43 | 38.76556 | -9.14365 | 333 ft | 9 kts | 293° |
| 2026-05-07 19:43 | 38.76601 | -9.14413 | 334 ft | 9 kts | 10° |
| 2026-05-07 19:44 | 38.76657 | -9.14384 | 336 ft | 10 kts | 23° |
| 2026-05-07 19:44 | 38.76886 | -9.14260 | 347 ft | 73 kts | 22° |
| 2026-05-07 19:44 | 38.77565 | -9.13899 | 366 ft | 136 kts | 22° |
| 2026-05-07 19:44 | 38.78592 | -9.13344 | 489 ft | 175 kts | 19° |
| 2026-05-07 19:45 | 38.79687 | -9.12734 | 1298 ft | 170 kts | 20° |
| 2026-05-07 19:45 | 38.80788 | -9.12140 | 2021 ft | 179 kts | 18° |
| 2026-05-07 19:45 | 38.81987 | -9.11430 | 2445 ft | 201 kts | 26° |
| 2026-05-07 19:45 | 38.83245 | -9.10417 | 2847 ft | 227 kts | 29° |
| 2026-05-07 19:46 | 38.84686 | -9.09320 | 3328 ft | 254 kts | 28° |
| 2026-05-07 19:46 | 38.86228 | -9.08110 | 4152 ft | 266 kts | 33° |
| 2026-05-07 19:46 | 38.87618 | -9.06494 | 5107 ft | 275 kts | 54° |
| 2026-05-07 19:46 | 38.88305 | -9.04206 | 5985 ft | 281 kts | 89° |
| 2026-05-07 19:47 | 38.87925 | -9.01790 | 6875 ft | 278 kts | 119° |
| 2026-05-07 19:47 | 38.86882 | -8.99745 | 7912 ft | 273 kts | 134° |
| 2026-05-07 19:47 | 38.85533 | -8.98029 | 8894 ft | 273 kts | 146° |
| 2026-05-07 19:47 | 38.83856 | -8.96941 | 9868 ft | 271 kts | 167° |
| 2026-05-07 19:48 | 38.81948 | -8.96914 | 10411 ft | 288 kts | 194° |
| 2026-05-07 19:48 | 38.80009 | -8.97899 | 10707 ft | 312 kts | 202° |
| 2026-05-07 19:48 | 38.77978 | -8.99042 | 11275 ft | 324 kts | 202° |
| 2026-05-07 19:48 | 38.75868 | -9.00214 | 12081 ft | 328 kts | 202° |
| 2026-05-07 19:49 | 38.73785 | -9.01351 | 12897 ft | 331 kts | 202° |
| 2026-05-07 19:49 | 38.71626 | -9.02517 | 13740 ft | 334 kts | 202° |
| 2026-05-07 19:49 | 38.69469 | -9.03674 | 14462 ft | 338 kts | 202° |
| 2026-05-07 19:49 | 38.67287 | -9.04841 | 15187 ft | 341 kts | 202° |
| 2026-05-07 19:50 | 38.65085 | -9.06018 | 15932 ft | 345 kts | 202° |
| 2026-05-07 19:50 | 38.62860 | -9.07203 | 16640 ft | 348 kts | 203° |
| 2026-05-07 19:50 | 38.60614 | -9.08398 | 17340 ft | 352 kts | 203° |
| 2026-05-07 19:50 | 38.58344 | -9.09607 | 18072 ft | 354 kts | 204° |
| 2026-05-07 19:51 | 38.56062 | -9.10824 | 18723 ft | 356 kts | 204° |
| 2026-05-07 19:51 | 38.53764 | -9.12051 | 19317 ft | 359 kts | 204° |
| 2026-05-07 19:51 | 38.51449 | -9.13287 | 19880 ft | 362 kts | 204° |
| 2026-05-07 19:51 | 38.49115 | -9.14531 | 20454 ft | 365 kts | 204° |
| 2026-05-07 19:52 | 38.46747 | -9.15747 | 21013 ft | 369 kts | 199° |
| 2026-05-07 19:52 | 38.44218 | -9.16407 | 21549 ft | 375 kts | 186° |
| 2026-05-07 19:52 | 38.41594 | -9.16273 | 22085 ft | 382 kts | 173° |
| 2026-05-07 19:52 | 38.39018 | -9.15303 | 22613 ft | 391 kts | 160° |
| 2026-05-07 19:53 | 38.36646 | -9.13537 | 23132 ft | 400 kts | 149° |
| 2026-05-07 19:53 | 38.34351 | -9.11512 | 23639 ft | 402 kts | 149° |
| 2026-05-07 19:53 | 38.32040 | -9.09483 | 24074 ft | 405 kts | 150° |
| 2026-05-07 19:53 | 38.29707 | -9.07445 | 24430 ft | 409 kts | 150° |
| 2026-05-07 19:54 | 38.27354 | -9.05390 | 24818 ft | 413 kts | 150° |
| 2026-05-07 19:54 | 38.24982 | -9.03316 | 25226 ft | 415 kts | 150° |
| 2026-05-07 19:54 | 38.22593 | -9.01229 | 25637 ft | 418 kts | 150° |
| 2026-05-07 19:54 | 38.20186 | -8.99132 | 26045 ft | 420 kts | 150° |
| 2026-05-07 19:55 | 38.17766 | -8.97028 | 26439 ft | 423 kts | 150° |
| 2026-05-07 19:55 | 38.15333 | -8.94909 | 26852 ft | 425 kts | 150° |
| 2026-05-07 19:55 | 38.12888 | -8.92776 | 27264 ft | 427 kts | 150° |
| 2026-05-07 19:55 | 38.10432 | -8.90630 | 27657 ft | 430 kts | 150° |
| 2026-05-07 19:56 | 38.07949 | -8.88496 | 28039 ft | 430 kts | 154° |
| 2026-05-07 19:56 | 38.05305 | -8.86755 | 28412 ft | 428 kts | 161° |
| 2026-05-07 19:56 | 38.02583 | -8.85219 | 28787 ft | 430 kts | 161° |
| 2026-05-07 19:56 | 37.99841 | -8.83680 | 29150 ft | 432 kts | 161° |
| 2026-05-07 19:57 | 37.97089 | -8.82131 | 29501 ft | 434 kts | 161° |
| 2026-05-07 19:57 | 37.94321 | -8.80567 | 29850 ft | 436 kts | 161° |
| 2026-05-07 19:57 | 37.91542 | -8.78996 | 30170 ft | 438 kts | 161° |
| 2026-05-07 19:57 | 37.88753 | -8.77419 | 30468 ft | 440 kts | 161° |
| 2026-05-07 19:58 | 37.85952 | -8.75832 | 30764 ft | 442 kts | 161° |
| 2026-05-07 19:58 | 37.83157 | -8.74251 | 31215 ft | 439 kts | 162° |
| 2026-05-07 19:58 | 37.80379 | -8.72683 | 31701 ft | 436 kts | 162° |
| 2026-05-07 19:58 | 37.77616 | -8.71127 | 32099 ft | 435 kts | 162° |
| 2026-05-07 19:59 | 37.74844 | -8.69572 | 32394 ft | 436 kts | 163° |
| 2026-05-07 19:59 | 37.72067 | -8.68019 | 32745 ft | 436 kts | 163° |
| 2026-05-07 19:59 | 37.69297 | -8.66467 | 33138 ft | 435 kts | 163° |
| 2026-05-07 19:59 | 37.66530 | -8.64928 | 33538 ft | 433 kts | 164° |
| 2026-05-07 20:00 | 37.63746 | -8.63505 | 33931 ft | 430 kts | 167° |
| 2026-05-07 20:00 | 37.60956 | -8.62196 | 34321 ft | 426 kts | 168° |
| 2026-05-07 20:00 | 37.58164 | -8.60954 | 34694 ft | 424 kts | 168° |
| 2026-05-07 20:00 | 37.55381 | -8.59739 | 35039 ft | 423 kts | 168° |
| 2026-05-07 20:01 | 37.52603 | -8.58519 | 35370 ft | 423 kts | 168° |
| 2026-05-07 20:01 | 37.49832 | -8.57277 | 35680 ft | 422 kts | 168° |
| 2026-05-07 20:01 | 37.47073 | -8.56017 | 35999 ft | 422 kts | 168° |
| 2026-05-07 20:01 | 37.44319 | -8.54748 | 36296 ft | 421 kts | 168° |
| 2026-05-07 20:02 | 37.41571 | -8.53478 | 36585 ft | 421 kts | 168° |
| 2026-05-07 20:02 | 37.38826 | -8.52212 | 36836 ft | 420 kts | 168° |
| 2026-05-07 20:02 | 37.36082 | -8.50952 | 36939 ft | 419 kts | 168° |
| 2026-05-07 20:02 | 37.33344 | -8.49696 | 36954 ft | 419 kts | 168° |
| 2026-05-07 20:03 | 37.27872 | -8.47189 | 36953 ft | 418 kts | 168° |
| 2026-05-07 20:03 | 37.22405 | -8.44695 | 36952 ft | 418 kts | 168° |
| 2026-05-07 20:04 | 37.16940 | -8.42207 | 36922 ft | 418 kts | 168° |
| 2026-05-07 20:04 | 37.11465 | -8.39720 | 36951 ft | 419 kts | 168° |
| 2026-05-07 20:05 | 37.05988 | -8.37228 | 36950 ft | 419 kts | 168° |
| 2026-05-07 20:05 | 37.01433 | -8.35162 | 36949 ft | 419 kts | 168° |
| 2026-05-07 20:06 | 36.95958 | -8.32680 | 36929 ft | 419 kts | 168° |
| 2026-05-07 20:06 | 36.90468 | -8.30202 | 36911 ft | 420 kts | 168° |
| 2026-05-07 20:07 | 36.84974 | -8.27722 | 36923 ft | 420 kts | 168° |
| 2026-05-07 20:07 | 36.79470 | -8.25240 | 36929 ft | 421 kts | 168° |
| 2026-05-07 20:08 | 36.73960 | -8.22756 | 36934 ft | 421 kts | 168° |
| 2026-05-07 20:08 | 36.68448 | -8.20275 | 36920 ft | 421 kts | 168° |
| 2026-05-07 20:09 | 36.62937 | -8.17790 | 36931 ft | 422 kts | 168° |
| 2026-05-07 20:10 | 36.54656 | -8.14091 | 36938 ft | 422 kts | 168° |
| 2026-05-07 20:10 | 36.49130 | -8.11625 | 36946 ft | 422 kts | 168° |
| 2026-05-07 20:11 | 36.43610 | -8.09161 | 36928 ft | 422 kts | 168° |
| 2026-05-07 20:11 | 36.38085 | -8.06693 | 36936 ft | 422 kts | 168° |
| 2026-05-07 20:12 | 36.32560 | -8.04225 | 36938 ft | 422 kts | 168° |
| 2026-05-07 20:12 | 36.27027 | -8.01768 | 36944 ft | 422 kts | 168° |
| 2026-05-07 20:13 | 36.21498 | -7.99317 | 36932 ft | 422 kts | 168° |
| 2026-05-07 20:13 | 36.15968 | -7.96865 | 36940 ft | 422 kts | 168° |
| 2026-05-07 20:14 | 36.10436 | -7.94414 | 36949 ft | 422 kts | 168° |
| 2026-05-07 20:14 | 36.04901 | -7.91970 | 36954 ft | 422 kts | 168° |
| 2026-05-07 20:15 | 35.99363 | -7.89535 | 36962 ft | 422 kts | 169° |
| 2026-05-07 20:15 | 35.93754 | -7.88066 | 36937 ft | 406 kts | 184° |
| 2026-05-07 20:16 | 35.88111 | -7.87567 | 36944 ft | 407 kts | 183° |
| 2026-05-07 20:16 | 35.82457 | -7.87058 | 36949 ft | 407 kts | 183° |
| 2026-05-07 20:17 | 35.76804 | -7.86536 | 36956 ft | 407 kts | 183° |
| 2026-05-07 20:17 | 35.71149 | -7.86020 | 36961 ft | 407 kts | 183° |
| 2026-05-07 20:18 | 35.65493 | -7.85507 | 36959 ft | 408 kts | 183° |
| 2026-05-07 20:18 | 35.59838 | -7.84999 | 36971 ft | 408 kts | 183° |
| 2026-05-07 20:19 | 35.54178 | -7.84482 | 36973 ft | 408 kts | 183° |
| 2026-05-07 20:19 | 35.48521 | -7.83975 | 36959 ft | 408 kts | 184° |
| 2026-05-07 20:20 | 35.42863 | -7.83476 | 36966 ft | 408 kts | 183° |
| 2026-05-07 20:20 | 35.37163 | -7.82973 | 36871 ft | 408 kts | 184° |
| 2026-05-07 20:20 | 35.34329 | -7.82731 | 36607 ft | 408 kts | 184° |
| 2026-05-07 20:21 | 35.31500 | -7.82492 | 36348 ft | 407 kts | 184° |
| 2026-05-07 20:21 | 35.28676 | -7.82256 | 36095 ft | 408 kts | 183° |
| 2026-05-07 20:21 | 35.25843 | -7.82020 | 35842 ft | 408 kts | 183° |
| 2026-05-07 20:21 | 35.23011 | -7.81787 | 35569 ft | 409 kts | 183° |
| 2026-05-07 20:22 | 35.20170 | -7.81552 | 35321 ft | 410 kts | 183° |
| 2026-05-07 20:22 | 35.17323 | -7.81312 | 35078 ft | 410 kts | 183° |
| 2026-05-07 20:22 | 35.14475 | -7.81070 | 34835 ft | 411 kts | 183° |
| 2026-05-07 20:22 | 35.11626 | -7.80825 | 34594 ft | 411 kts | 183° |
| 2026-05-07 20:23 | 35.08773 | -7.80582 | 34362 ft | 411 kts | 183° |
| 2026-05-07 20:23 | 35.05913 | -7.80341 | 34124 ft | 412 kts | 182° |
| 2026-05-07 20:23 | 35.03091 | -7.80105 | 33881 ft | 412 kts | 182° |
| 2026-05-07 20:23 | 35.00190 | -7.79864 | 33607 ft | 413 kts | 182° |
| 2026-05-07 20:24 | 34.97321 | -7.79628 | 33314 ft | 415 kts | 182° |
| 2026-05-07 20:24 | 34.94437 | -7.79392 | 33050 ft | 416 kts | 182° |
| 2026-05-07 20:24 | 34.91542 | -7.79152 | 32789 ft | 417 kts | 182° |
| 2026-05-07 20:24 | 34.88646 | -7.78912 | 32532 ft | 419 kts | 182° |
| 2026-05-07 20:25 | 34.85734 | -7.78664 | 32276 ft | 420 kts | 182° |
| 2026-05-07 20:25 | 34.82819 | -7.78417 | 31545 ft | 422 kts | 182° |
| 2026-05-07 20:25 | 34.79864 | -7.78167 | 30545 ft | 427 kts | 182° |
| 2026-05-07 20:25 | 34.76926 | -7.77916 | 29987 ft | 420 kts | 182° |
| 2026-05-07 20:26 | 34.74058 | -7.77675 | 29206 ft | 416 kts | 182° |
| 2026-05-07 20:26 | 34.71189 | -7.77450 | 28552 ft | 410 kts | 182° |
| 2026-05-07 20:26 | 34.68320 | -7.77245 | 27868 ft | 406 kts | 183° |
| 2026-05-07 20:26 | 34.65512 | -7.77058 | 27207 ft | 402 kts | 183° |
| 2026-05-07 20:27 | 34.62734 | -7.76877 | 26546 ft | 399 kts | 183° |
| 2026-05-07 20:27 | 34.59973 | -7.76695 | 25899 ft | 396 kts | 183° |
| 2026-05-07 20:27 | 34.57237 | -7.76509 | 25253 ft | 393 kts | 183° |
| 2026-05-07 20:27 | 34.54515 | -7.76320 | 24615 ft | 390 kts | 183° |
| 2026-05-07 20:28 | 34.51815 | -7.76133 | 23991 ft | 388 kts | 183° |
| 2026-05-07 20:28 | 34.49129 | -7.75948 | 23358 ft | 385 kts | 182° |
| 2026-05-07 20:28 | 34.46470 | -7.75763 | 22729 ft | 380 kts | 182° |
| 2026-05-07 20:28 | 34.43852 | -7.75576 | 22207 ft | 374 kts | 182° |
| 2026-05-07 20:29 | 34.41274 | -7.75393 | 21691 ft | 369 kts | 182° |
| 2026-05-07 20:29 | 34.38733 | -7.75216 | 21200 ft | 363 kts | 182° |
| 2026-05-07 20:29 | 34.36227 | -7.75042 | 20710 ft | 358 kts | 182° |
| 2026-05-07 20:29 | 34.33752 | -7.74870 | 20217 ft | 355 kts | 182° |
| 2026-05-07 20:30 | 34.31300 | -7.74696 | 19719 ft | 351 kts | 181° |
| 2026-05-07 20:30 | 34.28867 | -7.74524 | 19213 ft | 349 kts | 181° |
| 2026-05-07 20:30 | 34.26450 | -7.74355 | 18711 ft | 347 kts | 181° |
| 2026-05-07 20:30 | 34.24041 | -7.74191 | 18180 ft | 346 kts | 181° |
| 2026-05-07 20:31 | 34.21640 | -7.74026 | 17604 ft | 345 kts | 181° |
| 2026-05-07 20:31 | 34.19255 | -7.73862 | 17081 ft | 342 kts | 181° |
| 2026-05-07 20:31 | 34.16875 | -7.73686 | 16692 ft | 345 kts | 180° |
| 2026-05-07 20:31 | 34.14472 | -7.73479 | 16377 ft | 347 kts | 180° |
| 2026-05-07 20:32 | 34.12068 | -7.73254 | 16041 ft | 346 kts | 180° |
| 2026-05-07 20:32 | 34.09677 | -7.73021 | 15702 ft | 344 kts | 179° |
| 2026-05-07 20:32 | 34.07300 | -7.72784 | 15431 ft | 342 kts | 179° |
| 2026-05-07 20:32 | 34.04930 | -7.72551 | 15220 ft | 341 kts | 179° |
| 2026-05-07 20:33 | 34.02564 | -7.72321 | 15006 ft | 340 kts | 179° |
| 2026-05-07 20:33 | 34.00207 | -7.72093 | 14772 ft | 339 kts | 179° |
| 2026-05-07 20:33 | 33.97860 | -7.71869 | 14541 ft | 338 kts | 179° |
| 2026-05-07 20:33 | 33.95523 | -7.71644 | 14285 ft | 337 kts | 179° |
| 2026-05-07 20:34 | 33.93190 | -7.71415 | 14034 ft | 335 kts | 179° |
| 2026-05-07 20:34 | 33.90869 | -7.71192 | 13778 ft | 334 kts | 179° |
| 2026-05-07 20:34 | 33.88563 | -7.71136 | 13497 ft | 329 kts | 188° |
| 2026-05-07 20:34 | 33.86289 | -7.71407 | 13249 ft | 328 kts | 189° |
| 2026-05-07 20:35 | 33.84028 | -7.71707 | 12981 ft | 326 kts | 189° |
| 2026-05-07 20:35 | 33.81775 | -7.72008 | 12719 ft | 325 kts | 189° |
| 2026-05-07 20:35 | 33.79527 | -7.72310 | 12465 ft | 324 kts | 189° |
| 2026-05-07 20:35 | 33.77286 | -7.72615 | 12212 ft | 324 kts | 189° |
| 2026-05-07 20:36 | 33.75052 | -7.72921 | 11961 ft | 323 kts | 189° |
| 2026-05-07 20:36 | 33.72821 | -7.73225 | 11707 ft | 322 kts | 189° |
| 2026-05-07 20:36 | 33.70600 | -7.73528 | 11455 ft | 321 kts | 189° |
| 2026-05-07 20:36 | 33.68388 | -7.73825 | 11213 ft | 319 kts | 189° |
| 2026-05-07 20:37 | 33.66184 | -7.74120 | 10968 ft | 318 kts | 189° |
| 2026-05-07 20:37 | 33.63990 | -7.74417 | 10727 ft | 317 kts | 189° |
| 2026-05-07 20:37 | 33.61800 | -7.74715 | 10487 ft | 316 kts | 189° |
| 2026-05-07 20:37 | 33.59635 | -7.75009 | 10238 ft | 308 kts | 189° |
| 2026-05-07 20:38 | 33.57548 | -7.75289 | 10072 ft | 295 kts | 189° |
| 2026-05-07 20:38 | 33.55550 | -7.75553 | 9946 ft | 283 kts | 189° |
| 2026-05-07 20:38 | 33.53623 | -7.75805 | 9740 ft | 274 kts | 189° |
| 2026-05-07 20:38 | 33.51750 | -7.76052 | 9533 ft | 269 kts | 189° |
| 2026-05-07 20:39 | 33.49895 | -7.76296 | 9315 ft | 267 kts | 189° |
| 2026-05-07 20:39 | 33.48050 | -7.76544 | 9126 ft | 267 kts | 189° |
| 2026-05-07 20:39 | 33.46200 | -7.76799 | 8946 ft | 267 kts | 189° |
| 2026-05-07 20:39 | 33.44353 | -7.77057 | 8767 ft | 267 kts | 189° |
| 2026-05-07 20:40 | 33.42512 | -7.77322 | 8579 ft | 266 kts | 189° |
| 2026-05-07 20:40 | 33.40673 | -7.77594 | 8346 ft | 266 kts | 189° |
| 2026-05-07 20:40 | 33.38841 | -7.77875 | 8069 ft | 265 kts | 189° |
| 2026-05-07 20:40 | 33.37011 | -7.78159 | 7794 ft | 265 kts | 189° |
| 2026-05-07 20:41 | 33.35184 | -7.78448 | 7511 ft | 265 kts | 189° |
| 2026-05-07 20:41 | 33.33346 | -7.78603 | 7252 ft | 266 kts | 175° |
| 2026-05-07 20:41 | 33.31561 | -7.77974 | 6985 ft | 270 kts | 161° |
| 2026-05-07 20:41 | 33.29822 | -7.77123 | 6744 ft | 270 kts | 159° |
| 2026-05-07 20:42 | 33.28088 | -7.76264 | 6530 ft | 270 kts | 159° |
| 2026-05-07 20:42 | 33.26359 | -7.75410 | 6312 ft | 269 kts | 159° |
| 2026-05-07 20:42 | 33.25215 | -7.74847 | 6158 ft | 268 kts | 159° |
| 2026-05-07 20:42 | 33.23488 | -7.74001 | 5929 ft | 269 kts | 159° |
| 2026-05-07 20:43 | 33.21756 | -7.73164 | 5699 ft | 268 kts | 160° |
| 2026-05-07 20:43 | 33.20030 | -7.72328 | 5460 ft | 268 kts | 160° |
| 2026-05-07 20:43 | 33.18308 | -7.71486 | 5245 ft | 268 kts | 159° |
| 2026-05-07 20:43 | 33.16578 | -7.70653 | 5020 ft | 269 kts | 159° |
| 2026-05-07 20:44 | 33.14838 | -7.69826 | 4798 ft | 270 kts | 159° |
| 2026-05-07 20:44 | 33.13091 | -7.69016 | 4574 ft | 265 kts | 159° |
| 2026-05-07 20:44 | 33.11414 | -7.68254 | 4443 ft | 252 kts | 159° |
| 2026-05-07 20:44 | 33.09814 | -7.67533 | 4316 ft | 240 kts | 159° |
| 2026-05-07 20:45 | 33.08288 | -7.66851 | 4235 ft | 228 kts | 159° |
| 2026-05-07 20:45 | 33.06821 | -7.66201 | 4171 ft | 222 kts | 160° |
| 2026-05-07 20:45 | 33.05381 | -7.65567 | 4064 ft | 220 kts | 159° |
| 2026-05-07 20:45 | 33.03956 | -7.64923 | 4006 ft | 219 kts | 154° |
| 2026-05-07 20:46 | 33.02835 | -7.63740 | 4001 ft | 217 kts | 117° |
| 2026-05-07 20:46 | 33.02489 | -7.62031 | 4011 ft | 213 kts | 82° |
| 2026-05-07 20:46 | 33.03029 | -7.60447 | 4007 ft | 207 kts | 46° |
| 2026-05-07 20:46 | 33.04223 | -7.59588 | 4009 ft | 203 kts | 10° |
| 2026-05-07 20:47 | 33.05636 | -7.59612 | 4010 ft | 206 kts | 354° |
| 2026-05-07 20:47 | 33.07038 | -7.59418 | 4003 ft | 205 kts | 24° |
| 2026-05-07 20:47 | 33.08266 | -7.58565 | 4009 ft | 205 kts | 33° |
| 2026-05-07 20:47 | 33.09435 | -7.57600 | 4009 ft | 205 kts | 34° |
| 2026-05-07 20:48 | 33.10590 | -7.56630 | 3953 ft | 199 kts | 34° |
| 2026-05-07 20:48 | 33.11694 | -7.55702 | 3899 ft | 190 kts | 34° |
| 2026-05-07 20:48 | 33.12755 | -7.54802 | 3842 ft | 186 kts | 34° |
| 2026-05-07 20:48 | 33.13802 | -7.53905 | 3795 ft | 186 kts | 34° |
| 2026-05-07 20:49 | 33.14855 | -7.53023 | 3743 ft | 184 kts | 29° |
| 2026-05-07 20:49 | 33.16045 | -7.52507 | 3694 ft | 183 kts | 8° |
| 2026-05-07 20:49 | 33.17304 | -7.52572 | 3644 ft | 182 kts | 346° |
| 2026-05-07 20:49 | 33.18526 | -7.52987 | 3646 ft | 183 kts | 345° |
| 2026-05-07 20:50 | 33.19757 | -7.53406 | 3639 ft | 185 kts | 346° |
| 2026-05-07 20:50 | 33.20995 | -7.53828 | 3510 ft | 182 kts | 346° |
| 2026-05-07 20:50 | 33.22191 | -7.54236 | 3300 ft | 176 kts | 346° |
| 2026-05-07 20:50 | 33.23355 | -7.54636 | 3047 ft | 172 kts | 346° |
| 2026-05-07 20:51 | 33.24467 | -7.55022 | 2798 ft | 162 kts | 346° |
| 2026-05-07 20:51 | 33.25522 | -7.55402 | 2554 ft | 154 kts | 346° |
| 2026-05-07 20:51 | 33.26505 | -7.55759 | 2372 ft | 144 kts | 346° |
| 2026-05-07 20:51 | 33.27453 | -7.56094 | 2214 ft | 139 kts | 348° |
| 2026-05-07 20:52 | 33.28401 | -7.56394 | 2061 ft | 143 kts | 349° |
| 2026-05-07 20:52 | 33.29363 | -7.56712 | 1904 ft | 144 kts | 347° |
| 2026-05-07 20:52 | 33.30320 | -7.57049 | 1727 ft | 142 kts | 346° |
| 2026-05-07 20:52 | 33.31254 | -7.57377 | 1482 ft | 141 kts | 345° |
| 2026-05-07 20:53 | 33.32209 | -7.57685 | 1267 ft | 143 kts | 347° |
| 2026-05-07 20:53 | 33.33172 | -7.58003 | 1092 ft | 141 kts | 347° |
| 2026-05-07 20:53 | 33.34101 | -7.58315 | 900 ft | 136 kts | 345° |
| 2026-05-07 20:53 | 33.35007 | -7.58620 | 718 ft | 135 kts | 346° |
| 2026-05-07 20:54 | 33.35872 | -7.58909 | 651 ft | 116 kts | 343° |
| 2026-05-07 20:54 | 33.36483 | -7.59120 | 652 ft | 67 kts | 343° |
| 2026-05-07 20:54 | 33.36862 | -7.59251 | 651 ft | 51 kts | 344° |
| 2026-05-07 20:54 | 33.37152 | -7.59335 | 653 ft | 33 kts | 1° |
| 2026-05-07 20:55 | 33.37363 | -7.59279 | 654 ft | 29 kts | 14° |
| 2026-05-07 20:55 | 33.37535 | -7.59229 | 652 ft | 24 kts | 13° |
| 2026-05-07 20:55 | 33.37688 | -7.59185 | 648 ft | 22 kts | 13° |
| 2026-05-07 20:55 | 33.37815 | -7.59091 | 645 ft | 18 kts | 64° |
| 2026-05-07 20:56 | 33.37838 | -7.59005 | 649 ft | 8 kts | 74° |
| 2026-05-07 20:56 | 33.37850 | -7.58954 | 653 ft | 5 kts | 73° |
| 2026-05-07 20:56 | 33.37857 | -7.58925 | 652 ft | 2 kts | 73° |
| 2026-05-07 20:56 | 33.37862 | -7.58903 | 654 ft | 2 kts | 73° |
| 2026-05-07 20:57 | 33.37868 | -7.58882 | 654 ft | 6 kts | 73° |
| 2026-05-07 20:57 | 33.37882 | -7.58821 | 653 ft | 7 kts | 73° |
| 2026-05-07 20:57 | 33.37895 | -7.58769 | 653 ft | 7 kts | 73° |
| 2026-05-07 20:57 | 33.37910 | -7.58701 | 653 ft | 9 kts | 81° |
| 2026-05-07 20:58 | 33.37894 | -7.58630 | 654 ft | 9 kts | 123° |
| 2026-05-07 20:58 | 33.37860 | -7.58576 | 653 ft | 8 kts | 127° |
| 2026-05-07 20:58 | 33.37829 | -7.58526 | 653 ft | 8 kts | 129° |
| 2026-05-07 20:58 | 33.37767 | -7.58475 | 653 ft | 11 kts | 159° |
| 2026-05-07 20:59 | 33.37703 | -7.58453 | 653 ft | 9 kts | 165° |
| 2026-05-07 20:59 | 33.37645 | -7.58439 | 653 ft | 8 kts | 175° |
| 2026-05-07 20:59 | 33.37597 | -7.58435 | 653 ft | 6 kts | 173° |
| 2026-05-07 20:59 | 33.37582 | -7.58431 | 653 ft | 1 kts | 167° |
| 2026-05-07 21:00 | 33.37576 | -7.58430 | 653 ft | 3 kts | 166° |
| 2026-05-07 21:00 | 33.37554 | -7.58419 | 653 ft | 3 kts | 143° |
| 2026-05-07 21:00 | 33.37550 | -7.58399 | 653 ft | 2 kts | 89° |
| 2026-05-07 21:00 | 33.37554 | -7.58384 | 653 ft | 3 kts | 76° |
| 2026-05-07 21:01 | 33.37557 | -7.58366 | 653 ft | 2 kts | 77° |
| 2026-05-07 21:01 | 33.37560 | -7.58353 | 654 ft | 1 kts | 78° |
| 2026-05-07 21:01 | 33.37561 | -7.58344 | 655 ft | 1 kts | 78° |
| 2026-05-07 21:01 | 33.37562 | -7.58341 | 655 ft | 0 kts | 78° |
| 2026-05-07 21:02 | 33.37562 | -7.58339 | 655 ft | 0 kts | 78° |
| 2026-05-07 21:02 | 33.37563 | -7.58336 | 654 ft | 0 kts | 78° |